createdAt,value
2023-04-06T00:01:18.244Z,0
2023-04-06T00:02:33.462Z,0
2023-04-06T00:03:32.000Z,0
2023-04-06T00:05:03.905Z,0
2023-04-06T00:06:18.863Z,0
2023-04-06T00:07:35.304Z,0
2023-04-06T00:08:51.249Z,0
2023-04-06T00:10:07.689Z,0
2023-04-06T00:11:08.000Z,0
2023-04-06T00:12:39.830Z,0
2023-04-06T00:13:56.277Z,0
2023-04-06T00:15:12.467Z,0
2023-04-06T00:16:28.409Z,0
2023-04-06T00:17:44.867Z,0
2023-04-06T00:19:01.047Z,0
2023-04-06T00:20:17.232Z,0
2023-04-06T00:21:17.000Z,0
2023-04-06T00:22:32.000Z,0
2023-04-06T00:24:04.829Z,0
2023-04-06T00:25:05.000Z,0
2023-04-06T00:26:36.972Z,0
2023-04-06T00:27:37.000Z,0
2023-04-06T00:29:09.622Z,0
2023-04-06T00:30:25.807Z,0
2023-04-06T00:31:40.772Z,0
2023-04-06T00:32:55.981Z,0
2023-04-06T00:34:11.456Z,0
2023-04-06T00:35:10.000Z,0
2023-04-06T00:36:42.850Z,0
2023-04-06T00:37:58.799Z,0
2023-04-06T00:39:15.239Z,0
2023-04-06T00:40:31.428Z,0
2023-04-06T00:41:47.626Z,0
2023-04-06T00:43:03.822Z,0
2023-04-06T00:44:20.015Z,0
2023-04-06T00:45:36.210Z,0
2023-04-06T00:46:52.401Z,0
2023-04-06T00:48:08.598Z,0
2023-04-06T00:49:24.782Z,0
2023-04-06T00:50:25.000Z,0
2023-04-06T00:51:40.000Z,0
2023-04-06T00:53:12.388Z,0
2023-04-06T00:54:28.571Z,0
2023-04-06T00:55:44.761Z,0
2023-04-06T00:56:45.000Z,0
2023-04-06T00:58:17.156Z,0
2023-04-06T00:59:33.346Z,0
2023-04-06T01:00:32.000Z,0
2023-04-06T01:02:03.774Z,0
2023-04-06T01:03:04.000Z,0
2023-04-06T01:04:34.944Z,0
2023-04-06T01:05:34.000Z,0
2023-04-06T01:07:05.618Z,0
2023-04-06T01:08:21.805Z,0
2023-04-06T01:09:38.000Z,0
2023-04-06T01:10:54.196Z,0
2023-04-06T01:11:54.000Z,0
2023-04-06T01:13:26.578Z,0
2023-04-06T01:14:42.786Z,0
2023-04-06T01:15:58.721Z,0
2023-04-06T01:17:14.914Z,0
2023-04-06T01:18:15.000Z,0
2023-04-06T01:19:47.301Z,0
2023-04-06T01:21:03.494Z,0
2023-04-06T01:22:19.939Z,0
2023-04-06T01:23:35.138Z,0
2023-04-06T01:24:51.341Z,0
2023-04-06T01:26:07.524Z,0
2023-04-06T01:27:23.731Z,0
2023-04-06T01:28:24.000Z,0
2023-04-06T01:29:56.108Z,0
2023-04-06T01:31:11.327Z,0
2023-04-06T01:32:10.000Z,0
2023-04-06T01:33:42.736Z,0
2023-04-06T01:34:58.678Z,0
2023-04-06T01:36:14.139Z,0
2023-04-06T01:37:29.107Z,0
2023-04-06T01:38:29.000Z,0
2023-04-06T01:39:46.000Z,0
2023-04-06T01:41:02.000Z,0
2023-04-06T01:42:18.000Z,0
2023-04-06T01:43:34.000Z,0
2023-04-06T01:45:06.510Z,0
2023-04-06T01:46:22.460Z,0
2023-04-06T01:47:38.653Z,0
2023-04-06T01:48:55.096Z,0
2023-04-06T01:50:11.041Z,0
2023-04-06T01:51:11.000Z,0
2023-04-06T01:52:27.000Z,0
2023-04-06T01:53:43.000Z,0
2023-04-06T01:55:15.079Z,0
2023-04-06T01:56:31.272Z,0
2023-04-06T01:57:47.467Z,0
2023-04-06T01:59:03.657Z,0
2023-04-06T02:00:19.850Z,0
2023-04-06T02:01:20.000Z,0
2023-04-06T02:02:51.271Z,0
2023-04-06T02:04:06.478Z,0
2023-04-06T02:05:21.694Z,0
2023-04-06T02:06:36.657Z,0
2023-04-06T02:07:53.097Z,0
2023-04-06T02:08:53.000Z,0
2023-04-06T02:10:25.494Z,0
2023-04-06T02:11:41.430Z,0
2023-04-06T02:12:42.000Z,0
2023-04-06T02:14:14.079Z,0
2023-04-06T02:15:30.010Z,0
2023-04-06T02:16:46.473Z,0
2023-04-06T02:17:46.000Z,0
2023-04-06T02:19:03.000Z,0
2023-04-06T02:20:34.784Z,0
2023-04-06T02:21:51.218Z,0
2023-04-06T02:23:06.440Z,0
2023-04-06T02:24:22.380Z,0
2023-04-06T02:25:38.818Z,0
2023-04-06T02:26:55.012Z,0
2023-04-06T02:28:10.961Z,0
2023-04-06T02:29:27.155Z,0
2023-04-06T02:30:43.587Z,0
2023-04-06T02:31:58.808Z,0
2023-04-06T02:33:13.778Z,0
2023-04-06T02:34:14.000Z,0
2023-04-06T02:35:45.434Z,0
2023-04-06T02:37:00.401Z,0
2023-04-06T02:38:01.000Z,0
2023-04-06T02:39:33.036Z,0
2023-04-06T02:40:33.000Z,0
2023-04-06T02:41:49.000Z,0
2023-04-06T02:43:21.622Z,0
2023-04-06T02:44:22.000Z,0
2023-04-06T02:45:38.000Z,0
2023-04-06T02:46:54.000Z,0
2023-04-06T02:48:26.385Z,0
2023-04-06T02:49:42.578Z,0
2023-04-06T02:50:43.000Z,0
2023-04-06T02:51:59.000Z,0
2023-04-06T02:53:30.184Z,0
2023-04-06T02:54:30.000Z,0
2023-04-06T02:56:02.557Z,0
2023-04-06T02:57:03.000Z,0
2023-04-06T02:58:34.709Z,0
2023-04-06T02:59:51.142Z,0
2023-04-06T03:01:07.351Z,0
2023-04-06T03:02:22.568Z,0
2023-04-06T03:03:37.776Z,0
2023-04-06T03:04:53.975Z,0
2023-04-06T03:05:53.000Z,0
2023-04-06T03:07:08.000Z,0
2023-04-06T03:08:40.342Z,0
2023-04-06T03:09:41.000Z,0
2023-04-06T03:11:12.984Z,0
2023-04-06T03:12:29.175Z,0
2023-04-06T03:13:29.000Z,0
2023-04-06T03:15:01.309Z,0
2023-04-06T03:16:17.753Z,0
2023-04-06T03:17:18.000Z,0
2023-04-06T03:18:49.890Z,0
2023-04-06T03:19:50.000Z,0
2023-04-06T03:21:06.000Z,0
2023-04-06T03:22:23.000Z,0
2023-04-06T03:23:53.938Z,0
2023-04-06T03:25:10.119Z,0
2023-04-06T03:26:26.321Z,0
2023-04-06T03:27:42.503Z,0
2023-04-06T03:28:58.703Z,0
2023-04-06T03:29:59.000Z,0
2023-04-06T03:31:30.842Z,0
2023-04-06T03:32:30.000Z,0
2023-04-06T03:33:45.000Z,0
2023-04-06T03:35:02.000Z,0
2023-04-06T03:36:33.660Z,0
2023-04-06T03:37:49.854Z,0
2023-04-06T03:38:50.000Z,0
2023-04-06T03:40:06.000Z,0
2023-04-06T03:41:38.435Z,0
2023-04-06T03:42:39.000Z,0
2023-04-06T03:43:55.000Z,0
2023-04-06T03:45:27.257Z,0
2023-04-06T03:46:43.451Z,0
2023-04-06T03:47:59.660Z,0
2023-04-06T03:49:15.596Z,0
2023-04-06T03:50:31.056Z,0
2023-04-06T03:51:47.239Z,0
2023-04-06T03:53:03.432Z,0
2023-04-06T03:54:19.635Z,0
2023-04-06T03:55:20.000Z,0
2023-04-06T03:56:52.013Z,0
2023-04-06T03:58:08.216Z,0
2023-04-06T03:59:23.433Z,0
2023-04-06T04:00:22.000Z,0
2023-04-06T04:01:53.869Z,0
2023-04-06T04:02:53.000Z,0
2023-04-06T04:04:24.289Z,0
2023-04-06T04:05:23.000Z,0
2023-04-06T04:06:55.690Z,0
2023-04-06T04:08:11.894Z,0
2023-04-06T04:09:27.839Z,0
2023-04-06T04:10:44.032Z,0
2023-04-06T04:12:00.476Z,0
2023-04-06T04:13:16.675Z,0
2023-04-06T04:14:17.000Z,0
2023-04-06T04:15:49.055Z,0
2023-04-06T04:16:49.000Z,0
2023-04-06T04:18:05.000Z,0
2023-04-06T04:19:37.386Z,0
2023-04-06T04:20:38.000Z,0
2023-04-06T04:21:53.000Z,0
2023-04-06T04:23:24.983Z,0
2023-04-06T04:24:41.177Z,0
2023-04-06T04:25:57.613Z,0
2023-04-06T04:26:58.000Z,4
2023-04-06T04:28:14.000Z,0
2023-04-06T04:29:30.000Z,4
2023-04-06T04:31:01.415Z,4
2023-04-06T04:32:16.381Z,4
2023-04-06T04:33:31.855Z,4
2023-04-06T04:34:31.000Z,8
2023-04-06T04:35:47.000Z,8
2023-04-06T04:37:03.000Z,8
2023-04-06T04:38:19.000Z,12
2023-04-06T04:39:51.587Z,16
2023-04-06T04:40:52.000Z,20
2023-04-06T04:42:23.973Z,24
2023-04-06T04:43:40.409Z,28
2023-04-06T04:44:56.609Z,36
2023-04-06T04:46:12.802Z,40
2023-04-06T04:47:28.998Z,52
2023-04-06T04:48:45.195Z,60
2023-04-06T04:50:01.384Z,72
2023-04-06T04:51:00.000Z,84
2023-04-06T04:52:32.537Z,100
2023-04-06T04:53:33.000Z,112
2023-04-06T04:55:05.175Z,136
2023-04-06T04:56:05.000Z,152
2023-04-06T04:57:37.310Z,172
2023-04-06T04:58:53.744Z,192
2023-04-06T04:59:53.000Z,220
2023-04-06T05:01:08.000Z,244
2023-04-06T05:02:40.365Z,272
2023-04-06T05:03:56.577Z,304
2023-04-06T05:05:12.758Z,340
2023-04-06T05:06:28.959Z,376
2023-04-06T05:07:45.156Z,416
2023-04-06T05:09:01.348Z,460
2023-04-06T05:10:17.286Z,504
2023-04-06T05:11:33.726Z,552
2023-04-06T05:12:49.917Z,596
2023-04-06T05:14:06.113Z,644
2023-04-06T05:15:22.309Z,696
2023-04-06T05:16:22.000Z,748
2023-04-06T05:17:38.000Z,804
2023-04-06T05:19:09.656Z,856
2023-04-06T05:20:26.100Z,908
2023-04-06T05:21:41.308Z,956
2023-04-06T05:22:57.506Z,1000
2023-04-06T05:23:57.000Z,1052
2023-04-06T05:25:14.000Z,1104
2023-04-06T05:26:29.000Z,1172
2023-04-06T05:28:00.319Z,1236
2023-04-06T05:28:59.000Z,1296
2023-04-06T05:30:15.000Z,1352
2023-04-06T05:31:46.948Z,1404
2023-04-06T05:33:02.890Z,1448
2023-04-06T05:34:19.337Z,1496
2023-04-06T05:35:35.521Z,1552
2023-04-06T05:36:51.716Z,1600
2023-04-06T05:38:07.904Z,1640
2023-04-06T05:39:24.099Z,1692
2023-04-06T05:40:40.298Z,1740
2023-04-06T05:41:56.490Z,1780
2023-04-06T05:43:12.683Z,1804
2023-04-06T05:44:13.000Z,1880
2023-04-06T05:45:29.000Z,1980
2023-04-06T05:47:00.032Z,2008
2023-04-06T05:48:00.000Z,2008
2023-04-06T05:49:16.000Z,2052
2023-04-06T05:50:33.000Z,2068
2023-04-06T05:52:05.057Z,2120
2023-04-06T05:53:21.246Z,2228
2023-04-06T05:54:37.194Z,2212
2023-04-06T05:55:52.658Z,2336
2023-04-06T05:57:07.870Z,2544
2023-04-06T05:58:07.000Z,2784
2023-04-06T05:59:38.311Z,2784
2023-04-06T06:00:54.249Z,2980
2023-04-06T06:02:10.691Z,3164
2023-04-06T06:03:26.636Z,3236
2023-04-06T06:04:43.081Z,3348
2023-04-06T06:05:59.024Z,3336
2023-04-06T06:06:59.000Z,2880
2023-04-06T06:08:15.000Z,3140
2023-04-06T06:09:47.607Z,3440
2023-04-06T06:11:03.801Z,3860
2023-04-06T06:12:20.251Z,3232
2023-04-06T06:13:20.000Z,2880
2023-04-06T06:14:52.383Z,2816
2023-04-06T06:16:07.840Z,2792
2023-04-06T06:17:23.787Z,2772
2023-04-06T06:18:40.234Z,2760
2023-04-06T06:19:56.439Z,2780
2023-04-06T06:21:12.368Z,2808
2023-04-06T06:22:28.816Z,2848
2023-04-06T06:23:44.756Z,2868
2023-04-06T06:25:00.222Z,2892
2023-04-06T06:26:15.440Z,2928
2023-04-06T06:26:31.000Z,3088
2023-04-06T06:27:30.407Z,2952
2023-04-06T06:28:45.618Z,2976
2023-04-06T06:30:01.812Z,3004
2023-04-06T06:31:02.000Z,3040
2023-04-06T06:33:50.657Z,3136
2023-04-06T06:34:51.000Z,3200
2023-04-06T06:36:22.781Z,3268
2023-04-06T06:37:38.975Z,3316
2023-04-06T06:38:39.000Z,3352
2023-04-06T06:40:11.363Z,3388
2023-04-06T06:41:27.557Z,3392
2023-04-06T06:42:43.751Z,3380
2023-04-06T06:43:59.945Z,3388
2023-04-06T06:44:59.000Z,3328
2023-04-06T06:46:15.000Z,3340
2023-04-06T06:47:32.000Z,3384
2023-04-06T06:49:03.738Z,3536
2023-04-06T06:50:04.000Z,3584
2023-04-06T06:51:36.126Z,3612
2023-04-06T06:52:52.568Z,3644
2023-04-06T06:53:52.000Z,3676
2023-04-06T06:55:07.000Z,3708
2023-04-06T06:56:39.196Z,3716
2023-04-06T06:57:39.000Z,3620
2023-04-06T06:59:11.581Z,3648
2023-04-06T07:00:27.770Z,3692
2023-04-06T07:01:28.000Z,3660
2023-04-06T07:02:59.916Z,3700
2023-04-06T07:04:16.366Z,3704
2023-04-06T07:05:32.551Z,3696
2023-04-06T07:06:48.498Z,3672
2023-04-06T07:08:04.943Z,3708
2023-04-06T07:09:20.887Z,3732
2023-04-06T07:09:38.000Z,3920
2023-04-06T07:10:21.000Z,3772
2023-04-06T07:11:52.291Z,3816
2023-04-06T07:12:53.000Z,3888
2023-04-06T07:14:24.678Z,3924
2023-04-06T07:16:57.066Z,3920
2023-04-06T07:18:13.260Z,3940
2023-04-06T07:19:29.702Z,3960
2023-04-06T07:20:29.000Z,3984
2023-04-06T07:21:59.885Z,4032
2023-04-06T07:22:59.000Z,4084
2023-04-06T07:24:30.316Z,4128
2023-04-06T07:25:31.000Z,4168
2023-04-06T07:27:02.704Z,4208
2023-04-06T07:28:19.143Z,4264
2023-04-06T07:29:35.091Z,4300
2023-04-06T07:30:51.285Z,4340
2023-04-06T07:31:52.000Z,4400
2023-04-06T07:33:08.000Z,4464
2023-04-06T07:34:40.123Z,4532
2023-04-06T07:35:40.000Z,4616
2023-04-06T07:37:12.261Z,4716
2023-04-06T07:37:29.000Z,5424
2023-04-06T07:38:28.698Z,4872
2023-04-06T07:39:44.650Z,5000
2023-04-06T07:40:59.861Z,5124
2023-04-06T07:42:16.057Z,5228
2023-04-06T07:44:48.446Z,5748
2023-04-06T07:46:04.888Z,6108
2023-04-06T07:47:20.837Z,6376
2023-04-06T07:48:21.000Z,6676
2023-04-06T07:49:52.253Z,6956
2023-04-06T07:51:07.711Z,7176
2023-04-06T07:52:23.660Z,7360
2023-04-06T07:53:39.854Z,7536
2023-04-06T07:54:56.051Z,7736
2023-04-06T07:56:12.484Z,7820
2023-04-06T07:57:28.690Z,7744
2023-04-06T07:58:29.000Z,7736
2023-04-06T08:00:01.079Z,7604
2023-04-06T08:01:17.028Z,7352
2023-04-06T08:02:17.000Z,7164
2023-04-06T08:03:49.420Z,6944
2023-04-06T08:05:05.616Z,6840
2023-04-06T08:06:21.811Z,6804
2023-04-06T08:07:37.272Z,6784
2023-04-06T08:08:53.460Z,6772
2023-04-06T08:10:09.414Z,6804
2023-04-06T08:11:25.864Z,6832
2023-04-06T08:12:26.000Z,7012
2023-04-06T08:13:58.001Z,7132
2023-04-06T08:15:14.451Z,7228
2023-04-06T08:16:13.000Z,7272
2023-04-06T08:17:44.884Z,7292
2023-04-06T08:18:59.853Z,7300
2023-04-06T08:20:15.065Z,7204
2023-04-06T08:21:30.536Z,7120
2023-04-06T08:22:45.498Z,7004
2023-04-06T08:24:01.944Z,6904
2023-04-06T08:25:02.000Z,6864
2023-04-06T08:26:34.334Z,6740
2023-04-06T08:27:50.280Z,6796
2023-04-06T08:29:06.476Z,6924
2023-04-06T08:30:22.927Z,7060
2023-04-06T08:31:39.120Z,7140
2023-04-06T08:32:55.063Z,7176
2023-04-06T08:34:11.499Z,7288
2023-04-06T08:35:27.455Z,7520
2023-04-06T08:36:43.898Z,7764
2023-04-06T08:37:59.846Z,7728
2023-04-06T08:38:59.000Z,7812
2023-04-06T08:40:31.253Z,7764
2023-04-06T08:41:47.694Z,7508
2023-04-06T08:42:48.000Z,7340
2023-04-06T08:44:19.839Z,7252
2023-04-06T08:45:36.295Z,7272
2023-04-06T08:46:52.231Z,7276
2023-04-06T08:48:07.723Z,7264
2023-04-06T08:48:22.000Z,6944
2023-04-06T08:49:22.917Z,7316
2023-04-06T08:50:37.886Z,7256
2023-04-06T08:51:37.000Z,7000
2023-04-06T08:53:09.542Z,6844
2023-04-06T08:55:26.000Z,7276
2023-04-06T08:56:57.880Z,7648
2023-04-06T08:58:14.076Z,8268
2023-04-06T08:59:30.520Z,8952
2023-04-06T09:00:46.714Z,9352
2023-04-06T09:02:02.663Z,9744
2023-04-06T09:03:19.101Z,9956
2023-04-06T09:04:19.000Z,9980
2023-04-06T09:05:51.489Z,10012
2023-04-06T09:06:51.000Z,10000
2023-04-06T09:08:22.657Z,9856
2023-04-06T09:09:39.095Z,9596
2023-04-06T09:10:55.048Z,9496
2023-04-06T09:12:11.486Z,9632
2023-04-06T09:13:27.439Z,9768
2023-04-06T09:14:43.634Z,9780
2023-04-06T09:16:00.087Z,9772
2023-04-06T09:17:15.051Z,9932
2023-04-06T09:18:30.263Z,10044
2023-04-06T09:19:45.735Z,10176
2023-04-06T09:21:00.697Z,10228
2023-04-06T09:22:17.155Z,10392
2023-04-06T09:23:33.088Z,10564
2023-04-06T09:24:49.284Z,10640
2023-04-06T09:26:05.723Z,10720
2023-04-06T09:27:21.923Z,10804
2023-04-06T09:28:38.124Z,10888
2023-04-06T09:29:38.000Z,10900
2023-04-06T09:31:10.516Z,10804
2023-04-06T09:32:26.457Z,10740
2023-04-06T09:33:27.000Z,10668
2023-04-06T09:34:58.848Z,10708
2023-04-06T09:36:14.316Z,10788
2023-04-06T09:37:30.261Z,10856
2023-04-06T09:38:46.457Z,10940
2023-04-06T09:40:02.652Z,11116
2023-04-06T09:41:03.000Z,11364
2023-04-06T09:42:35.043Z,11576
2023-04-06T09:43:51.488Z,11684
2023-04-06T09:45:07.435Z,11684
2023-04-06T09:46:22.911Z,11548
2023-04-06T09:47:38.122Z,11340
2023-04-06T09:48:54.065Z,11144
2023-04-06T09:50:09.535Z,10972
2023-04-06T09:51:24.498Z,10816
2023-04-06T09:52:40.941Z,10716
2023-04-06T09:53:57.141Z,10664
2023-04-06T09:54:57.000Z,10636
2023-04-06T09:56:13.000Z,10632
2023-04-06T09:57:45.720Z,10672
2023-04-06T09:59:01.932Z,10752
2023-04-06T10:00:18.142Z,10880
2023-04-06T10:01:34.314Z,11032
2023-04-06T10:02:50.503Z,11036
2023-04-06T10:04:06.705Z,10948
2023-04-06T10:05:22.890Z,10824
2023-04-06T10:06:39.100Z,10740
2023-04-06T10:07:54.056Z,10744
2023-04-06T10:09:10.252Z,10800
2023-04-06T10:10:26.447Z,10880
2023-04-06T10:11:27.000Z,10948
2023-04-06T10:12:43.000Z,11008
2023-04-06T10:14:15.292Z,11068
2023-04-06T10:15:31.479Z,11100
2023-04-06T10:16:46.705Z,11152
2023-04-06T10:18:01.916Z,11216
2023-04-06T10:19:17.126Z,11296
2023-04-06T10:20:16.000Z,11436
2023-04-06T10:21:48.559Z,11592
2023-04-06T10:23:04.737Z,11800
2023-04-06T10:24:20.939Z,12060
2023-04-06T10:25:37.124Z,12372
2023-04-06T10:26:53.324Z,12668
2023-04-06T10:28:09.271Z,12888
2023-04-06T10:29:25.719Z,13052
2023-04-06T10:30:41.663Z,13124
2023-04-06T10:31:58.105Z,13124
2023-04-06T10:33:14.054Z,13016
2023-04-06T10:34:30.495Z,12840
2023-04-06T10:35:46.445Z,12720
2023-04-06T10:37:01.657Z,12680
2023-04-06T10:38:17.852Z,12684
2023-04-06T10:39:34.048Z,12756
2023-04-06T10:40:34.000Z,12840
2023-04-06T10:41:50.000Z,12932
2023-04-06T10:43:07.000Z,12988
2023-04-06T10:44:39.082Z,13060
2023-04-06T10:45:38.000Z,13196
2023-04-06T10:46:53.000Z,13296
2023-04-06T10:48:25.460Z,13380
2023-04-06T10:49:26.000Z,13432
2023-04-06T10:50:56.877Z,13444
2023-04-06T10:52:12.089Z,13440
2023-04-06T10:52:30.000Z,13468
2023-04-06T10:53:28.284Z,13416
2023-04-06T10:54:44.480Z,13400
2023-04-06T10:56:00.930Z,13400
2023-04-06T10:57:17.119Z,13412
2023-04-06T10:59:49.514Z,13552
2023-04-06T11:00:07.000Z,13576
2023-04-06T11:01:05.703Z,13652
2023-04-06T11:02:21.905Z,13708
2023-04-06T11:03:37.849Z,13704
2023-04-06T11:04:54.045Z,13648
2023-04-06T11:07:26.682Z,13500
2023-04-06T11:08:26.000Z,13428
2023-04-06T11:09:58.093Z,13376
2023-04-06T11:11:14.039Z,13332
2023-04-06T11:12:30.479Z,13308
2023-04-06T11:13:46.679Z,13308
2023-04-06T11:15:02.876Z,13324
2023-04-06T11:15:17.000Z,13664
2023-04-06T11:16:19.074Z,13356
2023-04-06T11:17:34.291Z,13396
2023-04-06T11:17:49.000Z,13932
2023-04-06T11:18:49.256Z,13452
2023-04-06T11:20:04.729Z,13544
2023-04-06T11:22:36.126Z,13808
2023-04-06T11:25:08.522Z,13976
2023-04-06T11:26:08.000Z,13928
2023-04-06T11:27:40.914Z,13852
2023-04-06T11:28:57.106Z,13812
2023-04-06T11:30:13.060Z,13780
2023-04-06T11:31:29.501Z,13800
2023-04-06T11:32:45.451Z,13836
2023-04-06T11:34:01.893Z,13952
2023-04-06T11:35:18.091Z,14076
2023-04-06T11:36:34.038Z,14228
2023-04-06T11:37:49.503Z,14372
2023-04-06T11:38:49.000Z,14468
2023-04-06T11:40:21.891Z,14496
2023-04-06T11:41:37.836Z,14472
2023-04-06T11:42:54.032Z,14496
2023-04-06T11:43:54.000Z,14612
2023-04-06T11:45:26.671Z,14828
2023-04-06T11:46:41.898Z,15068
2023-04-06T11:47:41.000Z,15284
2023-04-06T11:49:13.051Z,15420
2023-04-06T11:50:13.000Z,15452
2023-04-06T11:51:28.000Z,15344
2023-04-06T11:52:44.000Z,15188
2023-04-06T11:54:16.120Z,15068
2023-04-06T11:55:32.318Z,14912
2023-04-06T11:56:48.267Z,14768
2023-04-06T11:58:04.463Z,14680
2023-04-06T11:59:20.911Z,14636
2023-04-06T12:00:36.854Z,14696
2023-04-06T12:01:53.050Z,14876
2023-04-06T12:03:09.246Z,15092
2023-04-06T12:04:25.441Z,15232
2023-04-06T12:05:26.000Z,15148
2023-04-06T12:06:57.833Z,14812
2023-04-06T12:08:14.279Z,14260
2023-04-06T12:09:29.489Z,13908
2023-04-06T12:10:45.437Z,13636
2023-04-06T12:12:01.632Z,13624
2023-04-06T12:13:02.000Z,13752
2023-04-06T12:14:18.000Z,13828
2023-04-06T12:15:50.466Z,13920
2023-04-06T12:17:06.660Z,13840
2023-04-06T12:18:21.899Z,13808
2023-04-06T12:19:36.849Z,13656
2023-04-06T12:20:53.046Z,13668
2023-04-06T12:22:08.516Z,13460
2023-04-06T12:23:23.480Z,13020
2023-04-06T12:24:39.954Z,12468
2023-04-06T12:25:55.872Z,12160
2023-04-06T12:27:12.067Z,11624
2023-04-06T12:28:28.264Z,11500
2023-04-06T12:29:28.000Z,12160
2023-04-06T12:31:00.655Z,13316
2023-04-06T12:32:16.850Z,14184
2023-04-06T12:33:33.314Z,14436
2023-04-06T12:34:49.242Z,14308
2023-04-06T12:36:05.438Z,14020
2023-04-06T12:36:22.000Z,14268
2023-04-06T12:37:21.634Z,13816
2023-04-06T12:38:38.079Z,13540
2023-04-06T12:39:53.042Z,13204
2023-04-06T12:41:09.238Z,13736
2023-04-06T12:43:26.000Z,14472
2023-04-06T12:44:57.825Z,14548
2023-04-06T12:46:14.021Z,14424
2023-04-06T12:47:14.000Z,14280
2023-04-06T12:48:45.440Z,14008
2023-04-06T12:50:00.903Z,13720
2023-04-06T12:51:16.124Z,13156
2023-04-06T12:52:31.085Z,12216
2023-04-06T12:53:47.528Z,11148
2023-04-06T12:55:03.477Z,10012
2023-04-06T12:56:19.924Z,10664
2023-04-06T12:57:36.124Z,11708
2023-04-06T12:58:52.064Z,12040
2023-04-06T13:00:08.509Z,11848
2023-04-06T13:01:24.699Z,11604
2023-04-06T13:02:25.000Z,11300
2023-04-06T13:03:57.092Z,11056
2023-04-06T13:04:57.000Z,10916
2023-04-06T13:06:29.238Z,10572
2023-04-06T13:07:29.000Z,10464
2023-04-06T13:09:00.647Z,10544
2023-04-06T13:10:17.103Z,10292
2023-04-06T13:11:33.038Z,10356
2023-04-06T13:12:49.482Z,10440
2023-04-06T13:13:49.000Z,10128
2023-04-06T13:15:06.000Z,9476
2023-04-06T13:16:38.083Z,8740
2023-04-06T13:16:53.000Z,8132
2023-04-06T13:17:37.000Z,8424
2023-04-06T13:18:52.000Z,8420
2023-04-06T13:20:24.707Z,8328
2023-04-06T13:21:25.000Z,8152
2023-04-06T13:24:11.081Z,8044
2023-04-06T13:25:11.000Z,8148
2023-04-06T13:26:43.473Z,8040
2023-04-06T13:27:01.000Z,6496
2023-04-06T13:27:44.000Z,7548
2023-04-06T13:28:17.000Z,6064
2023-04-06T13:29:15.864Z,6928
2023-04-06T13:30:32.059Z,6872
2023-04-06T13:31:48.255Z,6828
2023-04-06T13:34:37.000Z,6224
2023-04-06T13:35:36.841Z,5716
2023-04-06T13:36:53.037Z,5532
2023-04-06T13:38:09.233Z,5492
2023-04-06T13:39:25.687Z,5736
2023-04-06T13:41:56.836Z,6584
2023-04-06T13:43:13.031Z,6896
2023-04-06T13:44:13.000Z,6824
2023-04-06T13:46:25.466Z,6632
2023-04-06T13:47:01.618Z,7236
2023-04-06T13:48:17.814Z,7108
2023-04-06T13:49:33.037Z,6948
2023-04-06T13:50:48.514Z,6884
2023-04-06T13:52:04.449Z,6320
2023-04-06T13:53:20.890Z,6768
2023-04-06T13:54:36.841Z,6864
2023-04-06T13:55:37.000Z,6856
2023-04-06T13:57:09.479Z,6744
2023-04-06T13:58:25.427Z,7616
2023-04-06T13:59:26.000Z,8400
2023-04-06T14:00:57.818Z,9808
2023-04-06T14:02:14.014Z,9596
2023-04-06T14:03:30.462Z,9640
2023-04-06T14:04:46.657Z,10000
2023-04-06T14:06:02.849Z,9372
2023-04-06T14:07:02.000Z,9312
2023-04-06T14:08:34.009Z,9628
2023-04-06T14:09:50.447Z,9840
2023-04-06T14:10:50.000Z,9352
2023-04-06T14:12:22.596Z,8784
2023-04-06T14:13:38.792Z,8824
2023-04-06T14:14:54.988Z,8532
2023-04-06T14:16:10.210Z,8272
2023-04-06T14:17:25.676Z,8240
2023-04-06T14:18:40.905Z,7888
2023-04-06T14:19:56.100Z,7376
2023-04-06T14:21:12.051Z,6692
2023-04-06T14:22:27.520Z,5956
2023-04-06T14:23:42.485Z,5308
2023-04-06T14:24:58.682Z,5092
2023-04-06T14:26:14.877Z,4808
2023-04-06T14:27:31.322Z,4312
2023-04-06T14:28:47.268Z,4140
2023-04-06T14:29:47.000Z,4148
2023-04-06T14:31:19.659Z,4068
2023-04-06T14:32:36.102Z,3916
2023-04-06T14:33:36.000Z,3500
2023-04-06T14:35:08.246Z,3604
2023-04-06T14:36:24.442Z,3088
2023-04-06T14:37:40.885Z,3284
2023-04-06T14:38:56.833Z,3304
2023-04-06T14:40:12.303Z,3832
2023-04-06T14:41:28.490Z,4452
2023-04-06T14:42:44.682Z,4692
2023-04-06T14:44:00.634Z,4896
2023-04-06T14:45:01.000Z,4128
2023-04-06T14:46:17.000Z,4540
2023-04-06T14:47:49.464Z,5060
2023-04-06T14:49:04.443Z,4732
2023-04-06T14:50:04.000Z,5512
2023-04-06T14:51:35.850Z,5160
2023-04-06T14:52:52.299Z,5304
2023-04-06T14:53:52.000Z,5348
2023-04-06T14:55:24.694Z,5748
2023-04-06T14:56:40.888Z,5604
2023-04-06T14:57:41.000Z,5356
2023-04-06T14:59:13.027Z,5480
2023-04-06T15:00:29.479Z,5816
2023-04-06T15:01:29.000Z,6068
2023-04-06T15:03:01.869Z,6312
2023-04-06T15:04:17.810Z,6424
2023-04-06T15:05:34.258Z,6296
2023-04-06T15:06:49.218Z,6532
2023-04-06T15:08:05.415Z,6560
2023-04-06T15:09:06.000Z,6572
2023-04-06T15:10:22.000Z,6292
2023-04-06T15:11:38.000Z,6092
2023-04-06T15:13:10.440Z,6160
2023-04-06T15:14:26.393Z,5908
2023-04-06T15:15:27.000Z,5796
2023-04-06T15:16:58.055Z,5420
2023-04-06T15:18:13.268Z,5164
2023-04-06T15:19:29.473Z,5092
2023-04-06T15:20:45.415Z,4932
2023-04-06T15:22:01.855Z,4768
2023-04-06T15:23:17.806Z,4672
2023-04-06T15:24:18.000Z,4708
2023-04-06T15:25:50.197Z,4864
2023-04-06T15:26:50.000Z,5000
2023-04-06T15:28:22.848Z,5052
2023-04-06T15:29:39.040Z,5168
2023-04-06T15:30:55.230Z,5160
2023-04-06T15:31:55.000Z,5120
2023-04-06T15:33:27.627Z,4608
2023-04-06T15:34:27.000Z,4268
2023-04-06T15:35:59.027Z,4232
2023-04-06T15:36:59.000Z,4204
2023-04-06T15:38:31.175Z,4112
2023-04-06T15:39:31.000Z,3892
2023-04-06T15:41:03.813Z,3684
2023-04-06T15:42:19.761Z,3532
2023-04-06T15:43:34.984Z,3444
2023-04-06T15:44:34.000Z,3436
2023-04-06T15:46:05.419Z,3416
2023-04-06T15:47:20.871Z,3356
2023-04-06T15:48:35.853Z,3220
2023-04-06T15:49:35.000Z,3052
2023-04-06T15:51:06.288Z,3136
2023-04-06T15:52:05.000Z,3228
2023-04-06T15:53:37.943Z,3156
2023-04-06T15:54:53.890Z,3348
2023-04-06T15:56:10.333Z,3308
2023-04-06T15:56:28.000Z,3308
2023-04-06T15:57:10.000Z,3240
2023-04-06T15:58:42.726Z,3320
2023-04-06T15:59:43.000Z,3280
2023-04-06T16:01:15.123Z,3288
2023-04-06T16:03:47.263Z,3296
2023-04-06T16:04:47.000Z,3180
2023-04-06T16:06:19.909Z,3024
2023-04-06T16:07:35.850Z,2880
2023-04-06T16:08:51.306Z,2752
2023-04-06T16:09:51.000Z,2708
2023-04-06T16:11:23.712Z,2724
2023-04-06T16:12:24.000Z,2780
2023-04-06T16:13:56.104Z,2764
2023-04-06T16:15:12.041Z,2788
2023-04-06T16:15:26.000Z,2700
2023-04-06T16:16:12.000Z,2760
2023-04-06T16:17:27.000Z,2744
2023-04-06T16:17:58.000Z,2732
2023-04-06T16:18:58.672Z,2836
2023-04-06T16:19:58.000Z,2808
2023-04-06T16:22:29.000Z,2696
2023-04-06T16:25:17.696Z,2728
2023-04-06T16:26:18.000Z,2720
2023-04-06T16:26:52.000Z,2620
2023-04-06T16:27:34.000Z,2692
2023-04-06T16:29:06.283Z,2684
2023-04-06T16:30:22.736Z,2616
2023-04-06T16:31:23.000Z,2640
2023-04-06T16:31:55.000Z,2516
2023-04-06T16:34:11.317Z,2620
2023-04-06T16:35:11.000Z,2592
2023-04-06T16:36:27.000Z,2540
2023-04-06T16:38:59.000Z,2476
2023-04-06T16:39:33.000Z,2048
2023-04-06T16:40:31.310Z,2388
2023-04-06T16:41:47.511Z,2260
2023-04-06T16:42:47.000Z,2164
2023-04-06T16:44:19.909Z,2112
2023-04-06T16:46:51.328Z,2016
2023-04-06T16:47:50.000Z,1952
2023-04-06T16:49:21.503Z,1844
2023-04-06T16:50:21.000Z,1684
2023-04-06T16:51:52.911Z,1580
2023-04-06T16:52:53.000Z,1484
2023-04-06T16:54:25.553Z,1364
2023-04-06T16:55:25.000Z,1328
2023-04-06T16:56:57.941Z,1248
2023-04-06T16:58:13.891Z,1208
2023-04-06T16:59:30.335Z,1116
2023-04-06T17:00:30.000Z,1036
2023-04-06T17:01:03.000Z,792
2023-04-06T17:01:46.000Z,992
2023-04-06T17:03:18.673Z,900
2023-04-06T17:04:19.000Z,832
2023-04-06T17:05:51.312Z,792
2023-04-06T17:08:06.000Z,776
2023-04-06T17:09:23.000Z,764
2023-04-06T17:10:39.000Z,688
2023-04-06T17:12:11.300Z,724
2023-04-06T17:13:11.000Z,696